createdAt,value
2023-04-15T00:00:22.053Z,56.214286
2023-04-15T00:05:24.555Z,56.666667
2023-04-15T00:10:27.011Z,56.133333
2023-04-15T00:15:28.911Z,55.466667
2023-04-15T00:20:31.295Z,56.200000
2023-04-15T00:25:33.716Z,56.600000
2023-04-15T00:30:15.946Z,56.000000
2023-04-15T00:35:18.326Z,55.000000
2023-04-15T00:40:20.271Z,54.800000
2023-04-15T00:45:22.605Z,54.142857
2023-04-15T00:50:24.900Z,53.200000
2023-04-15T00:55:27.007Z,53.200000
2023-04-15T01:00:29.237Z,54.200000
2023-04-15T01:05:31.304Z,59.000000
2023-04-15T01:10:33.755Z,60.666667
2023-04-15T01:15:16.008Z,59.266667
2023-04-15T01:20:19.094Z,57.866667
2023-04-15T01:25:21.191Z,57.666667
2023-04-15T01:30:23.218Z,57.071429
2023-04-15T01:35:25.200Z,57.000000
2023-04-15T01:40:27.597Z,57.333333
2023-04-15T01:45:30.115Z,56.400000
2023-04-15T01:50:32.868Z,55.666667
2023-04-15T01:55:34.697Z,55.333333
2023-04-15T02:00:16.669Z,55.933333
2023-04-15T02:05:18.743Z,55.000000
2023-04-15T02:10:20.905Z,53.866667
2023-04-15T02:15:22.808Z,52.000000
2023-04-15T02:20:24.946Z,52.666667
2023-04-15T02:25:27.396Z,52.866667
2023-04-15T02:30:29.566Z,55.000000
2023-04-15T02:35:31.736Z,55.666667
2023-04-15T02:40:34.263Z,55.266667
2023-04-15T02:45:15.932Z,56.000000
2023-04-15T02:50:18.376Z,55.266667
2023-04-15T02:55:20.673Z,55.600000
2023-04-15T03:00:22.909Z,55.571429
2023-04-15T03:05:25.089Z,54.866667
2023-04-15T03:10:27.663Z,54.600000
2023-04-15T03:15:29.735Z,55.400000
2023-04-15T03:20:31.934Z,54.933333
2023-04-15T03:25:34.687Z,55.200000
2023-04-15T03:30:16.790Z,55.533333
2023-04-15T03:35:18.971Z,55.933333
2023-04-15T03:40:21.427Z,55.466667
2023-04-15T03:45:23.721Z,56.428571
2023-04-15T03:50:26.105Z,57.333333
2023-04-15T03:55:28.060Z,57.400000
2023-04-15T04:00:30.376Z,59.600000
2023-04-15T04:05:32.529Z,60.000000
2023-04-15T04:10:34.704Z,60.000000
2023-04-15T04:15:17.097Z,60.733333
2023-04-15T04:20:19.912Z,60.066667
2023-04-15T04:25:22.226Z,60.000000
2023-04-15T04:30:24.105Z,60.400000
2023-04-15T04:35:26.352Z,60.600000
2023-04-15T04:40:28.605Z,61.000000
2023-04-15T04:45:30.660Z,61.000000
2023-04-15T04:50:32.968Z,62.400000
2023-04-15T04:55:35.218Z,64.800000
2023-04-15T05:00:17.104Z,65.866667
2023-04-15T05:05:19.214Z,67.000000
2023-04-15T05:10:21.412Z,66.733333
2023-04-15T05:15:23.640Z,66.000000
2023-04-15T05:20:26.046Z,65.466667
2023-04-15T05:25:28.277Z,65.666667
2023-04-15T05:30:30.357Z,64.133333
2023-04-15T05:35:32.436Z,64.466667
2023-04-15T05:40:34.692Z,65.000000
2023-04-15T05:45:16.651Z,65.000000
2023-04-15T05:50:18.833Z,65.000000
2023-04-15T05:55:21.090Z,65.000000
2023-04-15T06:00:23.455Z,65.000000
2023-04-15T06:05:26.018Z,65.133333
2023-04-15T06:10:27.969Z,65.533333
2023-04-15T06:15:30.353Z,65.666667
2023-04-15T06:20:32.410Z,65.200000
2023-04-15T06:25:34.610Z,64.933333
2023-04-15T06:30:16.770Z,64.933333
2023-04-15T06:35:18.708Z,64.200000
2023-04-15T06:40:21.055Z,64.133333
2023-04-15T06:45:23.058Z,64.714286
2023-04-15T06:50:24.848Z,63.400000
2023-04-15T06:55:27.214Z,63.333333
2023-04-15T07:00:29.757Z,64.866667
2023-04-15T07:05:31.780Z,64.266667
2023-04-15T07:10:33.728Z,64.266667
2023-04-15T07:15:15.788Z,65.000000
2023-04-15T07:20:18.083Z,64.533333
2023-04-15T07:25:20.119Z,65.066667
2023-04-15T07:30:22.440Z,66.428571
2023-04-15T07:35:24.752Z,67.000000
2023-04-15T07:40:26.900Z,67.000000
2023-04-15T07:45:29.006Z,66.866667
2023-04-15T07:50:31.328Z,66.733333
2023-04-15T07:55:33.236Z,67.000000
2023-04-15T08:00:35.832Z,67.333333
2023-04-15T08:05:17.853Z,68.000000
2023-04-15T08:10:19.938Z,68.333333
2023-04-15T08:15:22.117Z,68.857143
2023-04-15T08:20:24.207Z,68.466667
2023-04-15T08:25:26.130Z,69.000000
2023-04-15T08:30:28.298Z,69.000000
2023-04-15T08:35:30.444Z,69.266667
2023-04-15T08:40:32.806Z,70.000000
2023-04-15T08:45:35.248Z,70.000000
2023-04-15T08:50:16.504Z,70.466667
2023-04-15T08:55:18.830Z,71.000000
2023-04-15T09:00:20.651Z,71.066667
2023-04-15T09:05:28.505Z,72.000000
2023-04-15T09:10:30.994Z,72.000000
2023-04-15T09:15:33.573Z,72.733333
2023-04-15T09:20:15.946Z,73.000000
2023-04-15T09:25:18.737Z,73.000000
2023-04-15T09:30:21.918Z,73.066667
2023-04-15T09:35:24.168Z,74.000000
2023-04-15T09:40:27.262Z,74.600000
2023-04-15T09:45:30.213Z,75.466667
2023-04-15T09:50:32.954Z,76.000000
2023-04-15T09:55:15.790Z,75.266667
2023-04-15T10:00:18.471Z,76.000000
2023-04-15T10:05:21.414Z,74.200000
2023-04-15T10:10:24.016Z,73.000000
2023-04-15T10:15:27.841Z,73.000000
2023-04-15T10:20:29.638Z,73.000000
2023-04-15T10:25:32.591Z,73.000000
2023-04-15T10:30:35.797Z,73.000000
2023-04-15T10:35:17.926Z,72.066667
2023-04-15T10:40:20.697Z,71.800000
2023-04-15T10:45:22.955Z,73.000000
2023-04-15T10:50:25.819Z,73.000000
2023-04-15T10:55:28.850Z,73.600000
2023-04-15T11:00:31.818Z,74.733333
2023-04-15T11:05:34.462Z,74.000000
2023-04-15T11:10:16.850Z,74.000000
2023-04-15T11:15:19.944Z,73.133333
2023-04-15T11:20:22.774Z,73.000000
2023-04-15T11:25:25.617Z,73.000000
2023-04-15T11:30:29.313Z,73.000000
2023-04-15T11:35:32.191Z,72.666667
2023-04-15T11:40:35.963Z,71.400000
2023-04-15T11:45:18.125Z,71.400000
2023-04-15T11:50:21.505Z,72.266667
2023-04-15T11:55:24.047Z,73.000000
2023-04-15T12:00:27.477Z,72.466667
2023-04-15T12:05:30.878Z,71.000000
2023-04-15T12:10:33.192Z,72.200000
2023-04-15T12:15:16.711Z,72.533333
2023-04-15T12:20:18.533Z,72.266667
2023-04-15T12:25:20.962Z,73.333333
2023-04-15T12:30:24.268Z,74.642857
2023-04-15T12:35:26.719Z,74.666667
2023-04-15T12:40:29.483Z,74.000000
2023-04-15T12:45:32.126Z,73.133333
2023-04-15T12:50:35.910Z,73.000000
2023-04-15T12:55:17.845Z,73.533333
2023-04-15T13:00:21.209Z,74.000000
2023-04-15T13:05:24.090Z,74.000000
2023-04-15T13:10:26.561Z,74.000000
2023-04-15T13:15:29.570Z,74.733333
2023-04-15T13:20:32.380Z,74.400000
2023-04-15T13:25:35.195Z,73.066667
2023-04-15T13:30:17.441Z,73.000000
2023-04-15T13:35:21.036Z,72.200000
2023-04-15T13:40:24.522Z,72.571429
2023-04-15T13:45:27.120Z,73.000000
2023-04-15T13:50:30.122Z,71.400000
2023-04-15T13:55:33.035Z,70.200000
2023-04-15T14:00:35.936Z,69.000000
2023-04-15T14:05:18.691Z,69.466667
2023-04-15T14:10:22.023Z,69.533333
2023-04-15T14:15:24.690Z,68.285714
2023-04-15T14:20:28.198Z,66.000000
2023-04-15T14:25:34.014Z,64.600000
2023-04-15T14:30:33.235Z,63.666667
2023-04-15T14:35:35.770Z,63.400000
2023-04-15T14:40:17.908Z,62.600000
2023-04-15T14:45:21.147Z,59.800000
2023-04-15T14:50:23.965Z,58.857143
2023-04-15T14:55:26.834Z,58.400000
2023-04-15T15:00:30.688Z,57.200000
2023-04-15T15:05:32.867Z,56.133333
2023-04-15T15:10:46.561Z,55.866667
2023-04-15T15:15:28.510Z,54.333333
2023-04-15T15:20:20.860Z,52.533333
2023-04-15T15:25:23.214Z,51.571429
2023-04-15T15:30:26.712Z,49.666667
2023-04-15T15:35:29.261Z,49.733333
2023-04-15T15:40:32.358Z,48.066667
2023-04-15T15:45:36.478Z,48.400000
2023-04-15T15:50:18.049Z,48.533333
2023-04-15T15:55:20.977Z,49.666667
2023-04-15T16:00:23.593Z,48.142857
2023-04-15T16:05:25.999Z,47.733333
2023-04-15T16:10:29.539Z,48.666667
2023-04-15T16:15:31.907Z,47.933333
2023-04-15T16:20:35.453Z,46.666667
2023-04-15T16:25:17.984Z,45.133333
2023-04-15T16:30:22.136Z,45.000000
2023-04-15T16:35:23.280Z,45.214286
2023-04-15T16:40:25.952Z,44.666667
2023-04-15T16:45:29.131Z,45.266667
2023-04-15T16:50:32.211Z,45.000000
2023-04-15T16:55:35.113Z,44.000000
2023-04-15T17:00:16.968Z,43.800000
2023-04-15T17:05:20.127Z,43.266667
2023-04-15T17:10:22.991Z,42.785714
2023-04-15T17:15:27.436Z,39.266667
2023-04-15T17:20:29.348Z,39.533333
2023-04-15T17:25:32.261Z,39.933333
2023-04-15T17:30:34.748Z,40.600000
2023-04-15T17:35:17.619Z,38.466667
2023-04-15T17:40:21.142Z,37.800000
2023-04-15T17:45:23.542Z,37.785714
2023-04-15T17:50:26.036Z,38.933333
2023-04-15T17:55:30.359Z,38.533333
2023-04-15T18:00:32.687Z,38.666667
2023-04-15T18:05:36.254Z,39.000000
2023-04-15T18:10:18.876Z,38.066667
2023-04-15T18:15:21.810Z,38.400000
2023-04-15T18:20:25.074Z,39.571429
2023-04-15T18:25:27.709Z,37.666667
2023-04-15T18:30:30.259Z,37.200000
2023-04-15T18:35:32.712Z,37.733333
2023-04-15T18:40:35.073Z,38.466667
2023-04-15T18:45:17.766Z,36.400000
2023-04-15T18:50:21.079Z,36.533333
2023-04-15T18:55:23.788Z,37.857143
2023-04-15T19:00:26.338Z,37.666667
2023-04-15T19:05:29.059Z,38.400000
2023-04-15T19:10:31.798Z,37.600000
2023-04-15T19:15:35.279Z,35.857143
2023-04-15T19:20:17.917Z,38.125000
2023-04-15T19:25:21.007Z,36.466667
2023-04-15T19:30:24.337Z,37.000000
2023-04-15T19:35:26.844Z,36.133333
2023-04-15T19:40:29.572Z,35.066667
2023-04-15T19:45:31.983Z,35.333333
2023-04-15T19:50:34.756Z,40.933333
2023-04-15T19:55:17.086Z,43.800000
2023-04-15T20:00:19.864Z,40.266667
2023-04-15T20:05:22.680Z,37.071429
2023-04-15T20:10:25.212Z,37.333333
2023-04-15T20:15:27.754Z,35.000000
2023-04-15T20:20:31.309Z,34.733333
2023-04-15T20:25:34.587Z,34.333333
2023-04-15T20:30:17.016Z,34.533333
2023-04-15T20:35:19.679Z,34.933333
2023-04-15T20:40:22.244Z,34.571429
2023-04-15T20:45:24.877Z,34.533333
2023-04-15T20:50:27.531Z,34.133333
2023-04-15T20:55:30.805Z,35.533333
2023-04-15T21:00:32.548Z,33.600000
2023-04-15T21:05:36.065Z,33.133333
2023-04-15T21:10:18.124Z,32.466667
2023-04-15T21:15:21.234Z,31.600000
2023-04-15T21:20:23.767Z,32.214286
2023-04-15T21:25:26.685Z,30.733333
2023-04-15T21:30:29.380Z,29.266667
2023-04-15T21:35:32.565Z,29.800000
2023-04-15T21:40:35.670Z,29.066667
2023-04-15T21:45:17.902Z,30.400000
2023-04-15T21:50:20.958Z,30.200000
2023-04-15T21:55:23.722Z,30.285714
2023-04-15T22:00:26.275Z,29.866667
2023-04-15T22:05:29.012Z,29.933333
2023-04-15T22:10:32.511Z,30.000000
2023-04-15T22:15:35.672Z,30.533333
2023-04-15T22:20:19.719Z,32.333333
2023-04-15T22:25:23.420Z,33.428571
2023-04-15T22:30:25.044Z,32.600000
2023-04-15T22:35:28.069Z,32.533333
2023-04-15T22:40:30.191Z,33.733333
2023-04-15T22:45:33.232Z,33.666667
2023-04-15T22:50:35.977Z,31.933333
2023-04-15T22:55:18.615Z,32.000000
2023-04-15T23:00:21.184Z,32.466667
2023-04-15T23:05:24.327Z,32.428571
2023-04-15T23:10:27.167Z,31.400000
2023-04-15T23:15:30.199Z,31.400000
2023-04-15T23:20:33.246Z,31.000000
2023-04-15T23:25:35.852Z,31.437500
2023-04-15T23:30:18.116Z,31.200000
2023-04-15T23:35:20.410Z,32.133333
2023-04-15T23:40:23.292Z,30.071429
2023-04-15T23:45:25.915Z,30.266667
2023-04-15T23:50:28.782Z,29.800000
2023-04-15T23:55:32.025Z,30.000000
